createdAt,value
2023-03-22T00:02:30.494Z,19.07
2023-03-22T00:05:17.294Z,19.06
2023-03-22T00:08:07.267Z,19.06
2023-03-22T00:10:54.459Z,19.04
2023-03-22T00:13:43.109Z,19.03
2023-03-22T00:16:29.855Z,19.02
2023-03-22T00:19:17.606Z,19.01
2023-03-22T00:22:06.399Z,19.01
2023-03-22T00:24:53.222Z,19.00
2023-03-22T00:27:40.239Z,18.99
2023-03-22T00:30:27.254Z,18.98
2023-03-22T00:33:14.117Z,18.97
2023-03-22T00:36:04.434Z,18.97
2023-03-22T00:38:51.999Z,18.96
2023-03-22T00:41:38.761Z,18.95
2023-03-22T00:44:25.759Z,18.94
2023-03-22T00:47:12.361Z,18.93
2023-03-22T00:49:59.646Z,18.93
2023-03-22T00:52:46.874Z,18.91
2023-03-22T00:55:34.625Z,18.90
2023-03-22T00:58:22.443Z,18.90
2023-03-22T01:01:09.882Z,18.89
2023-03-22T01:03:57.356Z,18.88
2023-03-22T01:06:44.612Z,18.87
2023-03-22T01:09:34.118Z,18.87
2023-03-22T01:12:21.196Z,18.86
2023-03-22T01:15:09.549Z,18.85
2023-03-22T01:17:57.379Z,18.84
2023-03-22T01:20:44.394Z,18.84
2023-03-22T01:23:31.952Z,18.83
2023-03-22T01:26:18.674Z,18.82
2023-03-22T01:29:06.162Z,18.82
2023-03-22T01:31:53.382Z,18.81
2023-03-22T01:34:40.514Z,18.80
2023-03-22T01:37:27.943Z,18.80
2023-03-22T01:40:16.076Z,18.79
2023-03-22T01:43:04.105Z,18.78
2023-03-22T01:45:52.690Z,18.76
2023-03-22T01:48:47.291Z,18.76
2023-03-22T01:51:35.718Z,18.75
2023-03-22T01:54:49.249Z,18.74
2023-03-22T01:58:08.729Z,18.73
2023-03-22T02:01:09.738Z,18.72
2023-03-22T02:04:13.145Z,18.72
2023-03-22T02:07:10.056Z,18.70
2023-03-22T02:09:58.257Z,18.70
2023-03-22T02:13:13.809Z,18.69
2023-03-22T02:16:30.461Z,18.68
2023-03-22T02:19:52.000Z,18.68
2023-03-22T02:22:44.637Z,18.67
2023-03-22T02:25:57.751Z,18.66
2023-03-22T02:29:01.361Z,18.66
2023-03-22T02:31:48.787Z,18.65
2023-03-22T02:35:04.275Z,18.65
2023-03-22T02:38:18.139Z,18.64
2023-03-22T02:41:34.096Z,18.63
2023-03-22T02:44:36.058Z,18.62
2023-03-22T02:47:34.392Z,18.61
2023-03-22T02:50:42.887Z,18.60
2023-03-22T02:53:44.946Z,18.60
2023-03-22T02:56:39.493Z,18.59
2023-03-22T02:59:31.339Z,18.58
2023-03-22T03:02:20.963Z,18.57
2023-03-22T03:05:11.026Z,18.56
2023-03-22T03:08:01.537Z,18.56
2023-03-22T03:10:49.620Z,18.56
2023-03-22T03:13:36.893Z,18.55
2023-03-22T03:16:27.674Z,18.54
2023-03-22T03:19:35.624Z,18.53
2023-03-22T03:22:42.797Z,18.52
2023-03-22T03:25:43.620Z,18.51
2023-03-22T03:28:47.750Z,18.51
2023-03-22T03:31:44.108Z,18.49
2023-03-22T03:34:45.743Z,18.49
2023-03-22T03:37:45.043Z,18.48
2023-03-22T03:40:40.690Z,18.47
2023-03-22T03:43:28.402Z,18.47
2023-03-22T03:46:16.415Z,18.46
2023-03-22T03:49:05.465Z,18.45
2023-03-22T03:51:54.719Z,18.45
2023-03-22T03:54:42.929Z,18.43
2023-03-22T03:57:33.315Z,18.42
2023-03-22T04:00:20.441Z,18.41
2023-03-22T04:03:26.491Z,18.41
2023-03-22T04:06:45.879Z,18.39
2023-03-22T04:09:39.486Z,18.38
2023-03-22T04:12:34.442Z,18.36
2023-03-22T04:15:36.714Z,18.36
2023-03-22T04:18:25.064Z,18.34
2023-03-22T04:21:13.376Z,18.34
2023-03-22T04:24:07.937Z,18.33
2023-03-22T04:26:57.468Z,18.32
2023-03-22T04:29:51.301Z,18.32
2023-03-22T04:33:07.328Z,18.30
2023-03-22T04:36:17.619Z,18.30
2023-03-22T04:39:28.781Z,18.30
2023-03-22T04:42:28.811Z,18.30
2023-03-22T04:45:25.144Z,18.32
2023-03-22T04:48:15.264Z,18.34
2023-03-22T04:51:04.361Z,18.37
2023-03-22T04:53:55.609Z,18.41
2023-03-22T04:56:42.535Z,18.45
2023-03-22T04:59:29.646Z,18.49
2023-03-22T05:02:18.187Z,18.52
2023-03-22T05:05:07.306Z,18.56
2023-03-22T05:07:57.042Z,18.60
2023-03-22T05:10:46.003Z,18.62
2023-03-22T05:13:33.322Z,18.64
2023-03-22T05:16:21.295Z,18.67
2023-03-22T05:19:16.263Z,18.69
2023-03-22T05:22:07.081Z,18.73
2023-03-22T05:25:02.884Z,18.75
2023-03-22T05:27:54.306Z,18.78
2023-03-22T05:31:21.846Z,18.81
2023-03-22T05:34:14.223Z,18.84
2023-03-22T05:37:02.457Z,18.87
2023-03-22T05:39:54.424Z,18.90
2023-03-22T05:42:45.917Z,18.92
2023-03-22T05:45:37.300Z,18.96
2023-03-22T05:48:30.973Z,18.98
2023-03-22T05:51:19.328Z,19.01
2023-03-22T05:54:09.964Z,19.04
2023-03-22T05:57:01.487Z,19.06
2023-03-22T05:59:48.502Z,19.08
2023-03-22T06:02:41.429Z,19.12
2023-03-22T06:05:33.175Z,19.17
2023-03-22T06:08:21.491Z,19.26
2023-03-22T06:11:08.684Z,19.36
2023-03-22T06:13:56.176Z,19.45
2023-03-22T06:16:47.578Z,19.53
2023-03-22T06:19:35.537Z,19.62
2023-03-22T06:22:23.887Z,19.71
2023-03-22T06:25:11.534Z,19.79
2023-03-22T06:28:01.814Z,19.87
2023-03-22T06:30:49.298Z,19.95
2023-03-22T06:33:45.674Z,20.03
2023-03-22T06:36:58.993Z,20.12
2023-03-22T06:39:54.716Z,20.17
2023-03-22T06:42:42.416Z,20.23
2023-03-22T06:45:33.689Z,20.29
2023-03-22T06:48:21.392Z,20.36
2023-03-22T06:51:18.881Z,20.41
2023-03-22T06:54:05.751Z,20.47
2023-03-22T06:56:53.390Z,20.52
2023-03-22T06:59:40.294Z,20.57
2023-03-22T07:02:27.525Z,20.61
2023-03-22T07:05:33.288Z,20.66
2023-03-22T07:08:21.320Z,20.72
2023-03-22T07:11:09.604Z,20.76
2023-03-22T07:13:57.298Z,20.80
2023-03-22T07:16:45.852Z,20.82
2023-03-22T07:19:33.116Z,20.85
2023-03-22T07:22:25.212Z,20.88
2023-03-22T07:25:13.045Z,20.91
2023-03-22T07:28:00.942Z,20.94
2023-03-22T07:30:48.521Z,20.99
2023-03-22T07:33:36.455Z,21.02
2023-03-22T07:36:25.846Z,21.04
2023-03-22T07:39:13.852Z,21.03
2023-03-22T07:42:05.066Z,21.03
2023-03-22T07:45:11.269Z,21.04
2023-03-22T07:48:04.630Z,21.06
2023-03-22T07:51:06.106Z,21.09
2023-03-22T07:53:53.197Z,21.14
2023-03-22T07:56:40.500Z,21.18
2023-03-22T07:59:27.422Z,21.22
2023-03-22T08:02:16.344Z,21.27
2023-03-22T08:05:08.621Z,21.32
2023-03-22T08:07:58.609Z,21.36
2023-03-22T08:10:51.660Z,21.40
2023-03-22T08:13:39.282Z,21.43
2023-03-22T08:16:27.986Z,21.45
2023-03-22T08:19:15.816Z,21.46
2023-03-22T08:22:03.741Z,21.48
2023-03-22T08:25:29.739Z,21.51
2023-03-22T08:28:24.552Z,21.55
2023-03-22T08:31:15.182Z,21.58
2023-03-22T08:34:03.188Z,21.62
2023-03-22T08:36:50.104Z,21.65
2023-03-22T08:39:38.037Z,21.67
2023-03-22T08:42:46.663Z,21.68
2023-03-22T08:45:34.088Z,21.67
2023-03-22T08:48:30.019Z,21.68
2023-03-22T08:51:31.613Z,21.71
2023-03-22T08:54:44.794Z,21.74
2023-03-22T08:57:51.985Z,21.78
2023-03-22T09:01:15.193Z,21.81
2023-03-22T09:04:10.878Z,21.84
2023-03-22T09:06:58.190Z,21.88
2023-03-22T09:09:45.319Z,21.89
2023-03-22T09:12:33.044Z,21.90
2023-03-22T09:15:19.940Z,21.92
2023-03-22T09:18:09.310Z,21.93
2023-03-22T09:20:56.337Z,21.95
2023-03-22T09:23:48.015Z,21.97
2023-03-22T09:26:37.096Z,22.00
2023-03-22T09:29:25.554Z,22.03
2023-03-22T09:32:13.111Z,22.05
2023-03-22T09:35:00.329Z,22.07
2023-03-22T09:37:53.508Z,22.09
2023-03-22T09:40:52.489Z,22.11
2023-03-22T09:43:45.700Z,22.13
2023-03-22T09:46:37.430Z,22.15
2023-03-22T09:49:26.315Z,22.16
2023-03-22T09:52:16.038Z,22.17
2023-03-22T09:55:02.988Z,22.18
2023-03-22T09:58:07.696Z,22.19
2023-03-22T10:01:01.650Z,22.21
2023-03-22T10:04:25.539Z,22.22
2023-03-22T10:07:14.829Z,22.26
2023-03-22T10:10:13.005Z,22.29
2023-03-22T10:13:13.855Z,22.32
2023-03-22T10:16:04.247Z,22.33
2023-03-22T10:18:56.599Z,22.34
2023-03-22T10:21:46.942Z,22.35
2023-03-22T10:24:38.460Z,22.36
2023-03-22T10:27:28.813Z,22.37
2023-03-22T10:30:23.577Z,22.38
2023-03-22T10:33:18.759Z,22.39
2023-03-22T10:36:12.829Z,22.41
2023-03-22T10:39:07.128Z,22.44
2023-03-22T10:41:58.065Z,22.47
2023-03-22T10:44:50.893Z,22.49
2023-03-22T10:47:58.234Z,22.51
2023-03-22T10:50:46.014Z,22.52
2023-03-22T10:53:47.862Z,22.53
2023-03-22T10:56:34.678Z,22.54
2023-03-22T10:59:48.658Z,22.55
2023-03-22T11:02:52.022Z,22.56
2023-03-22T11:05:39.529Z,22.56
2023-03-22T11:08:26.776Z,22.55
2023-03-22T11:11:20.787Z,22.55
2023-03-22T11:14:27.535Z,22.54
2023-03-22T11:17:20.394Z,22.53
2023-03-22T11:20:14.698Z,22.52
2023-03-22T11:23:05.414Z,22.51
2023-03-22T11:25:56.868Z,22.50
2023-03-22T11:28:51.410Z,22.49
2023-03-22T11:31:57.344Z,22.48
2023-03-22T11:34:46.626Z,22.47
2023-03-22T11:37:34.216Z,22.46
2023-03-22T11:40:25.882Z,22.42
2023-03-22T11:43:31.835Z,22.39
2023-03-22T11:46:19.822Z,22.36
2023-03-22T11:49:14.923Z,22.33
2023-03-22T11:52:09.968Z,22.31
2023-03-22T11:54:59.336Z,22.30
2023-03-22T11:57:46.783Z,22.31
2023-03-22T12:00:37.781Z,22.30
2023-03-22T12:03:30.274Z,22.30
2023-03-22T12:06:26.059Z,22.30
2023-03-22T12:09:41.433Z,22.30
2023-03-22T12:12:40.954Z,22.28
2023-03-22T12:15:41.192Z,22.27
2023-03-22T12:18:36.078Z,22.28
2023-03-22T12:21:23.664Z,22.30
2023-03-22T12:24:32.324Z,22.33
2023-03-22T12:27:24.635Z,22.36
2023-03-22T12:30:18.241Z,22.38
2023-03-22T12:33:11.529Z,22.39
2023-03-22T12:36:02.612Z,22.40
2023-03-22T12:38:56.932Z,22.40
2023-03-22T12:41:48.058Z,22.41
2023-03-22T12:44:43.240Z,22.42
2023-03-22T12:47:41.882Z,22.41
2023-03-22T12:50:53.200Z,22.40
2023-03-22T12:53:47.408Z,22.42
2023-03-22T12:56:40.356Z,22.44
2023-03-22T12:59:30.972Z,22.46
2023-03-22T13:02:32.790Z,22.48
2023-03-22T13:05:19.609Z,22.50
2023-03-22T13:08:06.516Z,22.52
2023-03-22T13:11:05.097Z,22.53
2023-03-22T13:13:51.821Z,22.53
2023-03-22T13:17:00.822Z,22.52
2023-03-22T13:20:07.127Z,22.51
2023-03-22T13:22:53.721Z,22.50
2023-03-22T13:25:59.789Z,22.51
2023-03-22T13:29:09.426Z,22.50
2023-03-22T13:32:03.459Z,22.48
2023-03-22T13:34:53.303Z,22.47
2023-03-22T13:37:47.590Z,22.47
2023-03-22T13:40:54.986Z,22.48
2023-03-22T13:43:54.413Z,22.48
2023-03-22T13:46:42.223Z,22.47
2023-03-22T13:49:42.449Z,22.47
2023-03-22T13:52:40.510Z,22.46
2023-03-22T13:55:41.359Z,22.46
2023-03-22T13:58:53.168Z,22.46
2023-03-22T14:01:47.842Z,22.46
2023-03-22T14:04:47.991Z,22.46
2023-03-22T14:07:47.181Z,22.45
2023-03-22T14:10:56.726Z,22.45
2023-03-22T14:13:48.821Z,22.44
2023-03-22T14:16:43.958Z,22.43
2023-03-22T14:19:34.869Z,22.41
